createdAt,value
2023-01-07T00:01:01.499Z,92.02
2023-01-07T00:03:28.399Z,91.84
2023-01-07T00:06:02.220Z,91.31
2023-01-07T00:08:32.882Z,91.54
2023-01-07T00:11:08.090Z,91.54
2023-01-07T00:13:35.641Z,91.17
2023-01-07T00:16:05.273Z,91.13
2023-01-07T00:18:31.940Z,91.02
2023-01-07T00:21:02.643Z,91.45
2023-01-07T00:23:30.723Z,91.13
2023-01-07T00:26:01.977Z,91.10
2023-01-07T00:28:28.491Z,91.09
2023-01-07T00:31:05.666Z,90.99
2023-01-07T00:33:34.999Z,91.12
2023-01-07T00:36:03.640Z,90.83
2023-01-07T00:38:30.085Z,91.28
2023-01-07T00:40:56.794Z,90.92
2023-01-07T00:43:23.205Z,91.13
2023-01-07T00:45:49.573Z,90.92
2023-01-07T00:48:18.436Z,91.62
2023-01-07T00:50:47.028Z,90.92
2023-01-07T00:53:13.469Z,91.29
2023-01-07T00:55:39.960Z,90.60
2023-01-07T00:58:06.784Z,90.95
2023-01-07T01:00:33.771Z,91.10
2023-01-07T01:03:00.165Z,91.16
2023-01-07T01:05:26.530Z,90.85
2023-01-07T01:07:52.869Z,91.19
2023-01-07T01:10:20.299Z,90.91
2023-01-07T01:12:49.249Z,91.00
2023-01-07T01:15:16.881Z,90.40
2023-01-07T01:17:43.299Z,90.81
2023-01-07T01:20:14.224Z,90.19
2023-01-07T01:22:41.492Z,90.13
2023-01-07T01:25:08.853Z,90.39
2023-01-07T01:27:35.291Z,90.39
2023-01-07T01:30:02.355Z,90.33
2023-01-07T01:32:29.130Z,90.14
2023-01-07T01:34:55.469Z,89.86
2023-01-07T01:37:21.875Z,90.35
2023-01-07T01:39:48.276Z,89.56
2023-01-07T01:42:22.200Z,89.57
2023-01-07T01:44:54.322Z,89.45
2023-01-07T01:47:30.619Z,90.00
2023-01-07T01:50:10.167Z,89.74
2023-01-07T01:52:48.514Z,89.46
2023-01-07T01:55:19.248Z,89.44
2023-01-07T01:57:47.923Z,89.19
2023-01-07T02:00:16.544Z,89.32
2023-01-07T02:02:49.006Z,89.34
2023-01-07T02:05:15.997Z,89.14
2023-01-07T02:07:42.409Z,89.15
2023-01-07T02:10:16.480Z,88.84
2023-01-07T02:13:17.359Z,88.57
2023-01-07T02:16:02.996Z,88.60
2023-01-07T02:18:35.301Z,88.75
2023-01-07T02:21:20.646Z,88.71
2023-01-07T02:24:05.531Z,88.38
2023-01-07T02:26:52.091Z,88.50
2023-01-07T02:30:00.592Z,88.78
2023-01-07T02:32:51.568Z,88.25
2023-01-07T02:35:46.857Z,88.09
2023-01-07T02:38:43.734Z,88.22
2023-01-07T02:41:29.033Z,88.31
2023-01-07T02:44:14.436Z,88.38
2023-01-07T02:46:57.278Z,87.96
2023-01-07T02:49:23.673Z,88.34
2023-01-07T02:51:51.787Z,88.00
2023-01-07T02:54:23.436Z,88.06
2023-01-07T02:56:52.807Z,87.96
2023-01-07T02:59:30.302Z,87.93
2023-01-07T03:02:18.390Z,87.41
2023-01-07T03:05:02.429Z,87.43
2023-01-07T03:07:37.176Z,86.98
2023-01-07T03:10:22.505Z,87.48
2023-01-07T03:13:02.699Z,87.45
2023-01-07T03:15:39.758Z,87.44
2023-01-07T03:18:21.188Z,87.51
2023-01-07T03:20:52.062Z,87.51
2023-01-07T03:23:22.501Z,87.20
2023-01-07T03:25:52.118Z,87.33
2023-01-07T03:28:23.042Z,87.57
2023-01-07T03:30:51.788Z,87.30
2023-01-07T03:33:25.793Z,87.13
2023-01-07T03:35:53.928Z,87.58
2023-01-07T03:38:23.101Z,88.08
2023-01-07T03:40:51.159Z,87.39
2023-01-07T03:43:23.333Z,87.99
2023-01-07T03:45:52.803Z,88.51
2023-01-07T03:48:19.287Z,88.92
2023-01-07T03:50:45.685Z,89.26
2023-01-07T03:53:12.037Z,88.96
2023-01-07T03:55:38.548Z,89.10
2023-01-07T03:58:05.011Z,89.38
2023-01-07T04:00:31.547Z,89.42
2023-01-07T04:02:57.931Z,89.42
2023-01-07T04:05:24.316Z,89.69
2023-01-07T04:07:50.705Z,89.31
2023-01-07T04:10:17.283Z,89.45
2023-01-07T04:12:43.618Z,89.70
2023-01-07T04:15:10.402Z,89.50
2023-01-07T04:17:36.750Z,89.88
2023-01-07T04:20:03.947Z,90.07
2023-01-07T04:22:30.528Z,89.72
2023-01-07T04:24:57.959Z,89.65
2023-01-07T04:27:24.321Z,89.94
2023-01-07T04:29:50.691Z,89.43
2023-01-07T04:32:17.097Z,89.83
2023-01-07T04:34:43.452Z,90.20
2023-01-07T04:37:09.898Z,89.84
2023-01-07T04:39:36.365Z,89.51
2023-01-07T04:42:02.804Z,89.19
2023-01-07T04:44:29.152Z,89.00
2023-01-07T04:46:55.579Z,89.25
2023-01-07T04:49:21.934Z,89.46
2023-01-07T04:51:48.431Z,89.06
2023-01-07T04:54:14.924Z,89.11
2023-01-07T04:56:41.335Z,88.70
2023-01-07T04:59:07.711Z,88.53
2023-01-07T05:01:34.373Z,88.37
2023-01-07T05:04:01.181Z,88.96
2023-01-07T05:06:27.661Z,88.62
2023-01-07T05:08:54.139Z,88.95
2023-01-07T05:11:21.760Z,88.41
2023-01-07T05:13:49.793Z,88.85
2023-01-07T05:16:17.189Z,88.92
2023-01-07T05:18:44.118Z,88.93
2023-01-07T05:21:10.724Z,88.68
2023-01-07T05:23:37.130Z,88.65
2023-01-07T05:26:03.769Z,88.79
2023-01-07T05:28:30.192Z,88.44
2023-01-07T05:30:56.605Z,89.02
2023-01-07T05:33:23.085Z,88.81
2023-01-07T05:35:49.511Z,88.98
2023-01-07T05:38:15.876Z,88.91
2023-01-07T05:40:42.989Z,88.53
2023-01-07T05:43:09.398Z,88.68
2023-01-07T05:45:35.771Z,89.10
2023-01-07T05:48:02.346Z,88.73
2023-01-07T05:50:28.723Z,88.74
2023-01-07T05:52:55.125Z,88.91
2023-01-07T05:55:21.558Z,88.56
2023-01-07T05:57:47.942Z,88.64
2023-01-07T06:00:14.873Z,88.21
2023-01-07T06:02:41.395Z,87.94
2023-01-07T06:05:08.890Z,88.18
2023-01-07T06:07:35.832Z,87.89
2023-01-07T06:10:03.218Z,87.88
2023-01-07T06:12:30.300Z,87.67
2023-01-07T06:14:56.665Z,87.81
2023-01-07T06:17:23.081Z,87.26
2023-01-07T06:19:49.584Z,87.24
2023-01-07T06:22:16.025Z,87.21
2023-01-07T06:24:42.361Z,87.24
2023-01-07T06:27:10.281Z,86.68
2023-01-07T06:29:36.694Z,86.68
2023-01-07T06:32:03.114Z,86.32
2023-01-07T06:34:29.472Z,86.34
2023-01-07T06:36:55.833Z,86.21
2023-01-07T06:39:22.190Z,85.81
2023-01-07T06:41:48.623Z,85.47
2023-01-07T06:44:15.129Z,85.79
2023-01-07T06:46:41.649Z,85.80
2023-01-07T06:49:08.068Z,85.71
2023-01-07T06:51:34.472Z,86.04
2023-01-07T06:54:00.844Z,86.08
2023-01-07T06:56:27.204Z,85.90
2023-01-07T06:58:53.674Z,85.74
2023-01-07T07:01:20.180Z,85.15
2023-01-07T07:03:46.655Z,85.51
2023-01-07T07:06:13.069Z,85.23
2023-01-07T07:08:39.515Z,86.03
2023-01-07T07:11:05.972Z,85.89
2023-01-07T07:13:32.416Z,86.44
2023-01-07T07:15:58.854Z,85.93
2023-01-07T07:18:26.858Z,86.05
2023-01-07T07:20:53.235Z,86.52
2023-01-07T07:23:19.635Z,87.13
2023-01-07T07:25:46.042Z,86.34
2023-01-07T07:28:12.458Z,86.15
2023-01-07T07:30:47.291Z,86.25
2023-01-07T07:33:15.259Z,86.18
2023-01-07T07:35:42.278Z,86.05
2023-01-07T07:38:08.972Z,85.62
2023-01-07T07:40:35.548Z,85.39
2023-01-07T07:43:11.995Z,85.33
2023-01-07T07:45:40.352Z,85.45
2023-01-07T07:48:07.761Z,85.05
2023-01-07T07:50:34.705Z,84.96
2023-01-07T07:53:01.233Z,84.13
2023-01-07T07:55:28.110Z,84.24
2023-01-07T07:57:55.445Z,84.13
2023-01-07T08:00:22.296Z,82.79
2023-01-07T08:02:48.671Z,82.70
2023-01-07T08:05:15.143Z,82.33
2023-01-07T08:07:42.331Z,81.63
2023-01-07T08:10:09.169Z,80.86
2023-01-07T08:12:39.433Z,79.86
2023-01-07T08:15:08.057Z,79.55
2023-01-07T08:17:36.129Z,79.60
2023-01-07T08:20:04.266Z,80.24
2023-01-07T08:22:31.033Z,79.52
2023-01-07T08:24:57.377Z,79.29
2023-01-07T08:27:23.769Z,79.20
2023-01-07T08:29:50.227Z,79.42
2023-01-07T08:32:16.579Z,79.36
2023-01-07T08:34:42.952Z,79.48
2023-01-07T08:37:09.295Z,79.48
2023-01-07T08:39:35.759Z,79.83
2023-01-07T08:42:02.088Z,79.75
2023-01-07T08:44:28.466Z,80.17
2023-01-07T08:46:54.910Z,80.22
2023-01-07T08:49:22.287Z,80.42
2023-01-07T08:51:48.656Z,80.51
2023-01-07T08:54:15.213Z,80.84
2023-01-07T08:56:41.528Z,80.73
2023-01-07T08:59:08.051Z,81.17
2023-01-07T09:01:34.539Z,81.19
2023-01-07T09:04:00.975Z,81.05
2023-01-07T09:06:27.327Z,81.10
2023-01-07T09:08:53.738Z,80.86
2023-01-07T09:11:20.112Z,81.07
2023-01-07T09:13:46.510Z,81.42
2023-01-07T09:16:12.941Z,81.51
2023-01-07T09:18:39.533Z,81.25
2023-01-07T09:21:06.171Z,81.09
2023-01-07T09:23:32.681Z,81.15
2023-01-07T09:25:59.056Z,81.10
2023-01-07T09:28:25.399Z,80.56
2023-01-07T09:30:51.959Z,80.23
2023-01-07T09:33:18.340Z,79.92
2023-01-07T09:35:44.804Z,79.84
2023-01-07T09:38:11.228Z,79.35
2023-01-07T09:40:40.092Z,79.24
2023-01-07T09:43:09.361Z,79.13
2023-01-07T09:45:52.443Z,78.92
2023-01-07T09:48:31.394Z,78.45
2023-01-07T09:51:06.753Z,77.85
2023-01-07T09:53:37.563Z,76.96
2023-01-07T09:56:11.991Z,75.79
2023-01-07T09:58:40.831Z,75.53
2023-01-07T10:01:19.144Z,72.39
2023-01-07T10:04:00.429Z,67.54
2023-01-07T10:06:49.026Z,62.69
2023-01-07T10:09:35.661Z,59.33
2023-01-07T10:12:17.189Z,57.38
2023-01-07T10:14:52.548Z,59.28
2023-01-07T10:17:25.191Z,58.26
2023-01-07T10:20:09.853Z,60.20
2023-01-07T10:22:48.457Z,59.54
2023-01-07T10:25:40.490Z,58.13
2023-01-07T10:28:14.715Z,57.95
2023-01-07T10:30:45.943Z,57.59
2023-01-07T10:33:25.249Z,58.25
2023-01-07T10:35:58.951Z,57.73
2023-01-07T10:38:25.585Z,56.67
2023-01-07T10:40:57.496Z,56.00
2023-01-07T10:43:26.901Z,56.29
2023-01-07T10:46:27.506Z,55.90
2023-01-07T10:49:18.539Z,59.06
2023-01-07T10:52:02.686Z,60.82
2023-01-07T10:54:58.280Z,61.29
2023-01-07T10:57:25.685Z,62.28
2023-01-07T10:59:54.624Z,63.14
2023-01-07T11:02:27.236Z,64.27
2023-01-07T11:04:55.446Z,65.59
2023-01-07T11:07:46.430Z,65.69
2023-01-07T11:10:16.793Z,66.75
2023-01-07T11:12:48.260Z,66.53
2023-01-07T11:15:23.462Z,67.51
2023-01-07T11:18:00.196Z,68.22
2023-01-07T11:20:48.560Z,68.19
2023-01-07T11:23:42.879Z,68.54
2023-01-07T11:26:15.571Z,68.93
2023-01-07T11:29:14.399Z,68.51
2023-01-07T11:31:51.423Z,67.69
2023-01-07T11:34:23.944Z,67.72
2023-01-07T11:36:51.179Z,67.65
2023-01-07T11:39:26.795Z,68.06
2023-01-07T11:41:54.397Z,67.49
2023-01-07T11:44:21.286Z,66.76
2023-01-07T11:46:47.879Z,66.95
2023-01-07T11:49:24.281Z,66.84
2023-01-07T11:51:51.015Z,66.67
2023-01-07T11:54:25.565Z,66.83
2023-01-07T11:56:54.160Z,65.69
2023-01-07T11:59:28.220Z,66.50
2023-01-07T12:01:58.753Z,67.64
2023-01-07T12:04:27.203Z,67.68
2023-01-07T12:06:57.571Z,67.57
2023-01-07T12:09:25.991Z,68.04
2023-01-07T12:11:55.307Z,68.27
2023-01-07T12:14:34.262Z,68.21
2023-01-07T12:17:17.547Z,68.23
2023-01-07T12:19:58.817Z,68.41
2023-01-07T12:22:43.743Z,68.28
2023-01-07T12:25:33.661Z,66.97
2023-01-07T12:28:14.448Z,59.52
2023-01-07T12:31:02.495Z,56.67
2023-01-07T12:34:06.890Z,50.70
2023-01-07T12:36:42.822Z,49.25
2023-01-07T12:39:36.031Z,46.20
2023-01-07T12:42:26.267Z,46.38
2023-01-07T12:44:59.989Z,46.96
2023-01-07T12:47:51.137Z,46.86
2023-01-07T12:50:28.331Z,46.63
2023-01-07T12:53:04.588Z,50.47
2023-01-07T12:55:36.556Z,52.51
2023-01-07T12:58:03.064Z,50.37
2023-01-07T13:00:37.397Z,49.31
2023-01-07T13:03:19.014Z,50.37
2023-01-07T13:05:53.918Z,49.22
2023-01-07T13:08:34.919Z,51.05
2023-01-07T13:11:46.657Z,48.45
2023-01-07T13:14:25.167Z,46.07
2023-01-07T13:16:51.624Z,46.81
2023-01-07T13:19:18.145Z,47.69
2023-01-07T13:21:48.889Z,49.24
2023-01-07T13:24:55.204Z,49.01
2023-01-07T13:27:23.621Z,47.34
2023-01-07T13:30:03.745Z,48.76
2023-01-07T13:32:56.685Z,47.79
2023-01-07T13:35:47.091Z,49.15
2023-01-07T13:38:27.709Z,49.49
2023-01-07T13:41:14.139Z,49.60
2023-01-07T13:44:05.487Z,50.27
2023-01-07T13:46:39.886Z,49.27
2023-01-07T13:49:20.041Z,49.57
2023-01-07T13:51:46.401Z,49.39
2023-01-07T13:54:12.725Z,48.22
2023-01-07T13:56:40.150Z,49.34
2023-01-07T13:59:28.021Z,50.42
2023-01-07T14:02:18.805Z,53.21
2023-01-07T14:04:49.553Z,54.52
2023-01-07T14:07:16.570Z,54.20
2023-01-07T14:09:43.055Z,55.67
2023-01-07T14:12:18.391Z,56.39
2023-01-07T14:14:57.582Z,57.43
2023-01-07T14:17:57.692Z,58.36
2023-01-07T14:20:43.680Z,59.13
2023-01-07T14:23:38.635Z,59.77
2023-01-07T14:26:22.500Z,60.42
2023-01-07T14:29:31.026Z,61.35
2023-01-07T14:32:32.961Z,61.61
2023-01-07T14:35:24.042Z,61.98
2023-01-07T14:37:50.451Z,62.24
2023-01-07T14:40:25.770Z,62.37
2023-01-07T14:43:03.158Z,62.28
2023-01-07T14:45:41.539Z,62.36
2023-01-07T14:48:07.893Z,62.82
2023-01-07T14:50:37.834Z,62.76
2023-01-07T14:53:16.248Z,62.95
2023-01-07T14:55:48.758Z,63.31
2023-01-07T14:58:18.140Z,63.30
2023-01-07T15:01:21.950Z,63.84
2023-01-07T15:04:03.626Z,64.25
2023-01-07T15:06:39.277Z,64.00
2023-01-07T15:09:30.437Z,64.65
2023-01-07T15:12:19.839Z,64.47
2023-01-07T15:15:39.084Z,64.86
2023-01-07T15:18:10.427Z,65.50
2023-01-07T15:20:55.350Z,65.65
2023-01-07T15:23:38.580Z,65.48
2023-01-07T15:26:36.005Z,65.66
2023-01-07T15:29:13.199Z,66.38
2023-01-07T15:32:13.115Z,66.12
2023-01-07T15:34:40.246Z,65.94
2023-01-07T15:37:08.642Z,66.13
2023-01-07T15:39:44.164Z,66.40
2023-01-07T15:42:20.310Z,66.89
2023-01-07T15:44:53.984Z,66.16
2023-01-07T15:47:41.011Z,66.36
2023-01-07T15:50:26.069Z,66.58
2023-01-07T15:52:59.807Z,66.28
2023-01-07T15:55:41.165Z,66.87
2023-01-07T15:58:39.360Z,66.18
2023-01-07T16:01:08.425Z,66.73
2023-01-07T16:03:38.935Z,66.12
2023-01-07T16:06:25.982Z,66.57
2023-01-07T16:08:52.431Z,66.71
2023-01-07T16:11:31.989Z,67.16
2023-01-07T16:14:00.701Z,67.15
2023-01-07T16:16:29.642Z,67.31
2023-01-07T16:18:56.203Z,67.48
2023-01-07T16:21:24.909Z,67.40
2023-01-07T16:23:51.400Z,67.41
2023-01-07T16:26:27.297Z,67.85
2023-01-07T16:28:58.629Z,67.81
2023-01-07T16:31:28.125Z,68.11
2023-01-07T16:33:57.311Z,68.36
2023-01-07T16:36:29.074Z,68.17
2023-01-07T16:38:59.042Z,68.08
2023-01-07T16:41:28.698Z,68.03
2023-01-07T16:43:57.838Z,68.31
2023-01-07T16:46:31.228Z,67.94
2023-01-07T16:49:29.349Z,68.53
2023-01-07T16:52:13.969Z,68.36
2023-01-07T16:54:42.585Z,68.58
2023-01-07T16:57:11.689Z,68.45
2023-01-07T16:59:45.950Z,68.58
2023-01-07T17:02:40.210Z,68.57
2023-01-07T17:05:26.957Z,68.44
2023-01-07T17:07:57.924Z,68.69
2023-01-07T17:10:24.221Z,68.70
2023-01-07T17:13:04.532Z,68.62
2023-01-07T17:15:39.183Z,68.80
2023-01-07T17:18:11.661Z,69.12
2023-01-07T17:20:44.898Z,68.94
2023-01-07T17:23:26.493Z,69.07
2023-01-07T17:26:01.439Z,68.78
2023-01-07T17:28:33.622Z,68.88
2023-01-07T17:31:00.744Z,69.39
2023-01-07T17:33:30.262Z,68.77
2023-01-07T17:35:59.513Z,69.40
2023-01-07T17:38:25.933Z,69.63
2023-01-07T17:40:54.352Z,69.36
2023-01-07T17:43:34.691Z,69.36
2023-01-07T17:46:05.577Z,69.44
2023-01-07T17:48:32.938Z,69.04
2023-01-07T17:51:01.253Z,69.43
2023-01-07T17:53:31.199Z,69.08
2023-01-07T17:55:57.701Z,69.63
2023-01-07T17:58:29.820Z,69.60
2023-01-07T18:00:58.369Z,69.80
2023-01-07T18:03:24.938Z,69.75
2023-01-07T18:05:51.377Z,69.72
2023-01-07T18:08:18.046Z,69.68
2023-01-07T18:11:03.848Z,69.64
2023-01-07T18:13:30.550Z,69.70
2023-01-07T18:15:57.640Z,69.62
2023-01-07T18:18:25.921Z,69.67
2023-01-07T18:20:54.104Z,69.65
2023-01-07T18:23:21.479Z,69.86
2023-01-07T18:25:47.904Z,70.12
2023-01-07T18:28:14.436Z,69.87
2023-01-07T18:30:41.135Z,70.58
2023-01-07T18:35:40.513Z,70.21
2023-01-07T18:38:12.841Z,70.58
2023-01-07T18:40:39.314Z,70.76
2023-01-07T18:43:05.780Z,70.51
2023-01-07T18:45:32.657Z,70.34
2023-01-07T18:47:59.013Z,70.66
2023-01-07T18:50:25.756Z,70.83
2023-01-07T18:52:52.111Z,70.92
2023-01-07T18:55:19.336Z,70.95
2023-01-07T18:57:46.106Z,71.11
2023-01-07T19:00:13.143Z,71.39
2023-01-07T19:02:39.643Z,71.00
2023-01-07T19:05:06.516Z,70.73
2023-01-07T19:07:32.947Z,71.00
2023-01-07T19:09:59.310Z,70.68
2023-01-07T19:12:25.681Z,70.56
2023-01-07T19:14:52.110Z,70.49
2023-01-07T19:17:18.555Z,70.57
2023-01-07T19:19:48.812Z,70.40
2023-01-07T19:22:16.235Z,70.78
2023-01-07T19:24:44.508Z,70.62
2023-01-07T19:27:11.211Z,70.35
2023-01-07T19:29:37.613Z,70.34
2023-01-07T19:32:04.454Z,70.49
2023-01-07T19:34:31.007Z,70.60
2023-01-07T19:36:57.528Z,70.69
2023-01-07T19:39:24.027Z,70.33
2023-01-07T19:41:50.677Z,70.12
2023-01-07T19:44:17.291Z,70.18
2023-01-07T19:46:44.063Z,70.34
2023-01-07T19:49:11.947Z,70.58
2023-01-07T19:51:39.964Z,70.31
2023-01-07T19:54:08.533Z,70.02
2023-01-07T19:56:36.324Z,70.42
2023-01-07T19:59:03.146Z,70.60
2023-01-07T20:01:29.663Z,70.32
2023-01-07T20:03:58.199Z,70.63
2023-01-07T20:06:30.003Z,70.82
2023-01-07T20:08:58.103Z,70.59
2023-01-07T20:11:25.077Z,70.53
2023-01-07T20:13:51.748Z,70.84
2023-01-07T20:16:24.305Z,71.24
2023-01-07T20:18:54.413Z,71.10
2023-01-07T20:21:25.849Z,72.05
2023-01-07T20:23:53.314Z,71.64
2023-01-07T20:26:23.411Z,71.91
2023-01-07T20:28:52.645Z,72.22
2023-01-07T20:31:21.799Z,73.07
2023-01-07T20:33:50.488Z,74.05
2023-01-07T20:36:19.796Z,75.58
2023-01-07T20:38:48.556Z,76.20
2023-01-07T20:41:26.114Z,77.60
2023-01-07T20:43:58.324Z,78.39
2023-01-07T20:46:27.283Z,79.56
2023-01-07T20:48:54.288Z,80.67
2023-01-07T20:51:21.055Z,81.15
2023-01-07T20:53:48.191Z,80.96
2023-01-07T20:56:19.370Z,81.81
2023-01-07T20:58:46.536Z,82.33
2023-01-07T21:01:15.664Z,82.14
2023-01-07T21:03:42.746Z,82.54
2023-01-07T21:06:11.370Z,83.48
2023-01-07T21:08:41.278Z,83.25
2023-01-07T21:11:11.889Z,83.38
2023-01-07T21:13:40.150Z,83.65
2023-01-07T21:16:07.384Z,84.14
2023-01-07T21:18:34.503Z,84.08
2023-01-07T21:21:02.692Z,84.15
2023-01-07T21:23:29.514Z,84.19
2023-01-07T21:25:56.344Z,84.55
2023-01-07T21:28:25.957Z,84.58
2023-01-07T21:30:52.621Z,84.74
2023-01-07T21:33:19.405Z,84.96
2023-01-07T21:35:45.888Z,84.07
2023-01-07T21:38:14.032Z,83.70
2023-01-07T21:40:40.420Z,83.31
2023-01-07T21:43:06.838Z,83.13
2023-01-07T21:45:33.397Z,81.65
2023-01-07T21:47:59.898Z,81.87
2023-01-07T21:50:26.265Z,81.32
2023-01-07T21:52:52.659Z,82.30
2023-01-07T21:55:19.082Z,80.38
2023-01-07T21:57:45.462Z,81.01
2023-01-07T22:00:12.622Z,80.10
2023-01-07T22:02:39.318Z,80.06
2023-01-07T22:05:06.333Z,79.43
2023-01-07T22:07:32.775Z,77.88
2023-01-07T22:09:59.137Z,79.57
2023-01-07T22:12:25.757Z,78.22
2023-01-07T22:14:52.109Z,78.39
2023-01-07T22:17:18.845Z,77.77
2023-01-07T22:19:45.236Z,78.36
2023-01-07T22:22:11.805Z,77.21
2023-01-07T22:24:38.173Z,77.28
2023-01-07T22:27:04.834Z,77.44
2023-01-07T22:29:36.576Z,77.46
2023-01-07T22:32:02.998Z,76.85
2023-01-07T22:34:29.990Z,76.30
2023-01-07T22:37:26.796Z,76.60
2023-01-07T22:39:58.307Z,76.83
2023-01-07T22:42:53.135Z,76.46
2023-01-07T22:45:36.280Z,77.40
2023-01-07T22:48:03.286Z,77.17
2023-01-07T22:50:29.817Z,76.94
2023-01-07T22:52:56.232Z,77.07
2023-01-07T22:55:22.885Z,77.27
2023-01-07T22:57:49.379Z,77.32
2023-01-07T23:00:37.616Z,77.67
2023-01-07T23:03:04.178Z,77.79
2023-01-07T23:05:30.575Z,77.49
2023-01-07T23:07:59.724Z,77.53
2023-01-07T23:10:26.103Z,77.67
2023-01-07T23:12:52.491Z,78.50
2023-01-07T23:15:18.918Z,79.94
2023-01-07T23:17:45.305Z,79.33
2023-01-07T23:20:11.713Z,77.97
2023-01-07T23:22:38.084Z,77.64
2023-01-07T23:25:04.965Z,78.16
2023-01-07T23:27:31.413Z,78.01
2023-01-07T23:29:58.572Z,78.04
2023-01-07T23:32:25.393Z,77.90
2023-01-07T23:34:51.805Z,77.49
2023-01-07T23:37:18.202Z,77.41
2023-01-07T23:39:44.541Z,77.69
2023-01-07T23:42:10.929Z,77.16
2023-01-07T23:44:37.332Z,77.35
2023-01-07T23:47:04.288Z,77.25
2023-01-07T23:49:31.902Z,77.35
2023-01-07T23:51:58.699Z,77.55
2023-01-07T23:54:25.092Z,78.09
2023-01-07T23:56:51.779Z,78.49
2023-01-07T23:59:18.787Z,78.75
